sensor_id;sensor_type;location;lat;lon;timestamp;P1;durP1;ratioP1;P2;durP2;ratioP2
47433;SDS011;33184;48.774;8.918;2023-05-20T00:00:29;3.47;;;3.10;;
47433;SDS011;33184;48.774;8.918;2023-05-20T00:05:49;4.10;;;2.70;;
47433;SDS011;33184;48.774;8.918;2023-05-20T00:11:10;5.10;;;2.70;;
47433;SDS011;33184;48.774;8.918;2023-05-20T00:16:30;27.95;;;15.15;;
47433;SDS011;33184;48.774;8.918;2023-05-20T00:21:51;26.40;;;14.88;;
47433;SDS011;33184;48.774;8.918;2023-05-20T00:27:11;9.88;;;5.78;;
47433;SDS011;33184;48.774;8.918;2023-05-20T00:32:32;14.38;;;8.32;;
47433;SDS011;33184;48.774;8.918;2023-05-20T00:37:53;7.95;;;4.55;;
47433;SDS011;33184;48.774;8.918;2023-05-20T00:43:14;3.97;;;2.50;;
47433;SDS011;33184;48.774;8.918;2023-05-20T00:48:40;3.92;;;2.53;;
47433;SDS011;33184;48.774;8.918;2023-05-20T00:54:02;3.20;;;2.42;;
47433;SDS011;33184;48.774;8.918;2023-05-20T00:59:23;7.17;;;2.97;;
47433;SDS011;33184;48.774;8.918;2023-05-20T01:04:45;3.25;;;2.45;;
47433;SDS011;33184;48.774;8.918;2023-05-20T01:10:06;7.20;;;2.97;;
47433;SDS011;33184;48.774;8.918;2023-05-20T01:15:28;5.73;;;2.90;;
47433;SDS011;33184;48.774;8.918;2023-05-20T01:20:50;5.37;;;2.60;;
47433;SDS011;33184;48.774;8.918;2023-05-20T01:26:14;4.20;;;2.80;;
47433;SDS011;33184;48.774;8.918;2023-05-20T01:31:36;9.77;;;3.53;;
47433;SDS011;33184;48.774;8.918;2023-05-20T01:36:57;5.07;;;2.47;;
47433;SDS011;33184;48.774;8.918;2023-05-20T01:42:18;5.10;;;3.73;;
47433;SDS011;33184;48.774;8.918;2023-05-20T01:47:43;2.67;;;2.20;;
47433;SDS011;33184;48.774;8.918;2023-05-20T01:53:05;5.15;;;2.65;;
47433;SDS011;33184;48.774;8.918;2023-05-20T01:58:28;3.30;;;2.37;;
47433;SDS011;33184;48.774;8.918;2023-05-20T02:03:49;4.07;;;3.15;;
47433;SDS011;33184;48.774;8.918;2023-05-20T02:09:10;6.00;;;3.38;;
47433;SDS011;33184;48.774;8.918;2023-05-20T02:14:31;3.80;;;2.03;;
47433;SDS011;33184;48.774;8.918;2023-05-20T02:19:52;5.30;;;3.53;;
47433;SDS011;33184;48.774;8.918;2023-05-20T02:25:12;5.00;;;2.50;;
47433;SDS011;33184;48.774;8.918;2023-05-20T02:30:33;2.60;;;2.25;;
47433;SDS011;33184;48.774;8.918;2023-05-20T02:35:53;6.75;;;2.28;;
47433;SDS011;33184;48.774;8.918;2023-05-20T02:41:14;4.50;;;2.30;;
47433;SDS011;33184;48.774;8.918;2023-05-20T02:46:36;2.50;;;1.90;;
47433;SDS011;33184;48.774;8.918;2023-05-20T02:51:56;6.67;;;2.23;;
47433;SDS011;33184;48.774;8.918;2023-05-20T02:57:17;2.60;;;2.40;;
47433;SDS011;33184;48.774;8.918;2023-05-20T03:02:38;3.47;;;2.50;;
47433;SDS011;33184;48.774;8.918;2023-05-20T03:08:00;3.30;;;2.50;;
47433;SDS011;33184;48.774;8.918;2023-05-20T03:13:21;4.80;;;2.67;;
47433;SDS011;33184;48.774;8.918;2023-05-20T03:18:41;5.67;;;2.83;;
47433;SDS011;33184;48.774;8.918;2023-05-20T03:24:02;3.50;;;2.83;;
47433;SDS011;33184;48.774;8.918;2023-05-20T03:29:23;3.25;;;2.50;;
47433;SDS011;33184;48.774;8.918;2023-05-20T03:34:44;5.77;;;3.03;;
47433;SDS011;33184;48.774;8.918;2023-05-20T03:40:05;5.47;;;2.87;;
47433;SDS011;33184;48.774;8.918;2023-05-20T03:45:27;4.03;;;3.00;;
47433;SDS011;33184;48.774;8.918;2023-05-20T03:50:55;4.78;;;2.60;;
47433;SDS011;33184;48.774;8.918;2023-05-20T03:56:16;5.78;;;3.78;;
47433;SDS011;33184;48.774;8.918;2023-05-20T04:01:36;3.85;;;2.35;;
47433;SDS011;33184;48.774;8.918;2023-05-20T04:06:58;2.78;;;2.55;;
47433;SDS011;33184;48.774;8.918;2023-05-20T04:12:22;3.50;;;2.63;;
47433;SDS011;33184;48.774;8.918;2023-05-20T04:17:45;3.83;;;3.08;;
47433;SDS011;33184;48.774;8.918;2023-05-20T04:23:07;4.68;;;3.08;;
47433;SDS011;33184;48.774;8.918;2023-05-20T04:28:28;3.90;;;2.87;;
47433;SDS011;33184;48.774;8.918;2023-05-20T04:33:54;4.85;;;3.28;;
47433;SDS011;33184;48.774;8.918;2023-05-20T04:39:16;3.15;;;2.72;;
47433;SDS011;33184;48.774;8.918;2023-05-20T04:44:41;4.18;;;2.75;;
47433;SDS011;33184;48.774;8.918;2023-05-20T04:50:02;3.10;;;2.65;;
47433;SDS011;33184;48.774;8.918;2023-05-20T04:55:24;5.20;;;3.13;;
47433;SDS011;33184;48.774;8.918;2023-05-20T05:00:45;3.78;;;3.38;;
47433;SDS011;33184;48.774;8.918;2023-05-20T05:06:06;6.93;;;2.83;;
47433;SDS011;33184;48.774;8.918;2023-05-20T05:11:27;4.18;;;2.38;;
47433;SDS011;33184;48.774;8.918;2023-05-20T05:16:48;4.15;;;3.75;;
47433;SDS011;33184;48.774;8.918;2023-05-20T05:22:09;5.50;;;3.07;;
47433;SDS011;33184;48.774;8.918;2023-05-20T05:27:30;4.28;;;3.83;;
47433;SDS011;33184;48.774;8.918;2023-05-20T05:32:52;5.38;;;2.95;;
47433;SDS011;33184;48.774;8.918;2023-05-20T05:38:13;3.92;;;2.85;;
47433;SDS011;33184;48.774;8.918;2023-05-20T05:43:33;3.75;;;3.33;;
47433;SDS011;33184;48.774;8.918;2023-05-20T05:48:55;4.03;;;3.22;;
47433;SDS011;33184;48.774;8.918;2023-05-20T05:54:18;4.55;;;4.13;;
47433;SDS011;33184;48.774;8.918;2023-05-20T05:59:40;4.43;;;3.40;;
47433;SDS011;33184;48.774;8.918;2023-05-20T06:05:01;5.10;;;3.45;;
47433;SDS011;33184;48.774;8.918;2023-05-20T06:10:22;6.88;;;4.03;;
47433;SDS011;33184;48.774;8.918;2023-05-20T06:15:43;5.55;;;3.50;;
47433;SDS011;33184;48.774;8.918;2023-05-20T06:21:05;4.75;;;2.97;;
47433;SDS011;33184;48.774;8.918;2023-05-20T06:26:26;5.32;;;4.53;;
47433;SDS011;33184;48.774;8.918;2023-05-20T06:31:46;5.05;;;4.50;;
47433;SDS011;33184;48.774;8.918;2023-05-20T06:37:07;4.15;;;3.47;;
47433;SDS011;33184;48.774;8.918;2023-05-20T06:42:27;5.95;;;4.40;;
47433;SDS011;33184;48.774;8.918;2023-05-20T06:47:56;4.60;;;4.18;;
47433;SDS011;33184;48.774;8.918;2023-05-20T06:53:17;5.10;;;4.18;;
47433;SDS011;33184;48.774;8.918;2023-05-20T06:58:38;4.55;;;4.15;;
47433;SDS011;33184;48.774;8.918;2023-05-20T07:03:58;4.82;;;4.35;;
47433;SDS011;33184;48.774;8.918;2023-05-20T07:09:19;5.00;;;4.50;;
47433;SDS011;33184;48.774;8.918;2023-05-20T07:14:41;5.00;;;4.28;;
47433;SDS011;33184;48.774;8.918;2023-05-20T07:20:01;5.15;;;4.65;;
47433;SDS011;33184;48.774;8.918;2023-05-20T07:25:23;6.60;;;5.20;;
47433;SDS011;33184;48.774;8.918;2023-05-20T07:30:44;5.95;;;4.80;;
47433;SDS011;33184;48.774;8.918;2023-05-20T07:36:16;5.47;;;4.82;;
47433;SDS011;33184;48.774;8.918;2023-05-20T07:47:01;6.25;;;5.10;;
47433;SDS011;33184;48.774;8.918;2023-05-20T07:52:22;5.72;;;5.00;;
47433;SDS011;33184;48.774;8.918;2023-05-20T07:57:43;5.32;;;4.57;;
47433;SDS011;33184;48.774;8.918;2023-05-20T08:03:04;7.22;;;4.78;;
47433;SDS011;33184;48.774;8.918;2023-05-20T08:14:11;6.30;;;5.70;;
47433;SDS011;33184;48.774;8.918;2023-05-20T08:19:36;5.03;;;4.55;;
47433;SDS011;33184;48.774;8.918;2023-05-20T08:24:56;6.28;;;5.03;;
47433;SDS011;33184;48.774;8.918;2023-05-20T08:30:17;4.93;;;4.50;;
47433;SDS011;33184;48.774;8.918;2023-05-20T08:35:38;4.75;;;4.35;;
47433;SDS011;33184;48.774;8.918;2023-05-20T08:41:00;5.38;;;4.88;;
47433;SDS011;33184;48.774;8.918;2023-05-20T08:46:20;9.00;;;4.93;;
47433;SDS011;33184;48.774;8.918;2023-05-20T08:51:42;5.82;;;4.93;;
47433;SDS011;33184;48.774;8.918;2023-05-20T08:57:05;6.50;;;5.00;;
47433;SDS011;33184;48.774;8.918;2023-05-20T09:02:25;5.10;;;3.90;;
47433;SDS011;33184;48.774;8.918;2023-05-20T09:07:46;5.10;;;4.07;;
47433;SDS011;33184;48.774;8.918;2023-05-20T09:13:07;6.47;;;4.63;;
47433;SDS011;33184;48.774;8.918;2023-05-20T09:18:29;4.43;;;4.03;;
47433;SDS011;33184;48.774;8.918;2023-05-20T09:23:50;5.00;;;3.70;;
47433;SDS011;33184;48.774;8.918;2023-05-20T09:29:12;5.13;;;3.83;;
47433;SDS011;33184;48.774;8.918;2023-05-20T09:34:32;4.43;;;4.03;;
47433;SDS011;33184;48.774;8.918;2023-05-20T09:40:01;6.93;;;4.13;;
47433;SDS011;33184;48.774;8.918;2023-05-20T09:45:24;5.20;;;3.85;;
47433;SDS011;33184;48.774;8.918;2023-05-20T09:50:46;4.45;;;3.80;;
47433;SDS011;33184;48.774;8.918;2023-05-20T09:56:07;5.25;;;4.40;;
47433;SDS011;33184;48.774;8.918;2023-05-20T10:01:28;7.00;;;4.47;;
47433;SDS011;33184;48.774;8.918;2023-05-20T10:06:59;4.10;;;3.70;;
47433;SDS011;33184;48.774;8.918;2023-05-20T10:13:05;5.55;;;4.30;;
47433;SDS011;33184;48.774;8.918;2023-05-20T10:24:09;6.07;;;4.07;;
47433;SDS011;33184;48.774;8.918;2023-05-20T10:29:41;4.55;;;3.15;;
47433;SDS011;33184;48.774;8.918;2023-05-20T10:35:20;4.47;;;3.58;;
47433;SDS011;33184;48.774;8.918;2023-05-20T10:40:42;3.78;;;3.47;;
47433;SDS011;33184;48.774;8.918;2023-05-20T10:46:03;4.40;;;3.15;;
47433;SDS011;33184;48.774;8.918;2023-05-20T10:51:24;3.35;;;3.05;;
47433;SDS011;33184;48.774;8.918;2023-05-20T10:56:51;3.40;;;2.33;;
47433;SDS011;33184;48.774;8.918;2023-05-20T11:02:14;4.45;;;2.80;;
47433;SDS011;33184;48.774;8.918;2023-05-20T11:07:35;4.25;;;3.30;;
47433;SDS011;33184;48.774;8.918;2023-05-20T11:12:56;5.38;;;3.05;;
47433;SDS011;33184;48.774;8.918;2023-05-20T11:18:16;4.68;;;3.38;;
47433;SDS011;33184;48.774;8.918;2023-05-20T11:23:37;3.90;;;2.83;;
47433;SDS011;33184;48.774;8.918;2023-05-20T11:28:58;4.07;;;3.05;;
47433;SDS011;33184;48.774;8.918;2023-05-20T11:34:19;3.63;;;3.33;;
47433;SDS011;33184;48.774;8.918;2023-05-20T11:39:41;4.20;;;3.20;;
47433;SDS011;33184;48.774;8.918;2023-05-20T11:45:01;4.88;;;3.13;;
47433;SDS011;33184;48.774;8.918;2023-05-20T11:50:22;3.15;;;2.95;;
47433;SDS011;33184;48.774;8.918;2023-05-20T12:01:10;3.10;;;2.80;;
47433;SDS011;33184;48.774;8.918;2023-05-20T12:06:31;3.35;;;2.72;;
47433;SDS011;33184;48.774;8.918;2023-05-20T12:11:51;3.03;;;2.80;;
47433;SDS011;33184;48.774;8.918;2023-05-20T12:17:14;2.75;;;2.55;;
47433;SDS011;33184;48.774;8.918;2023-05-20T12:22:35;5.82;;;3.13;;
47433;SDS011;33184;48.774;8.918;2023-05-20T12:27:55;2.72;;;2.47;;
47433;SDS011;33184;48.774;8.918;2023-05-20T12:33:16;5.65;;;3.13;;
47433;SDS011;33184;48.774;8.918;2023-05-20T12:38:37;2.30;;;2.10;;
47433;SDS011;33184;48.774;8.918;2023-05-20T12:43:57;2.95;;;2.25;;
47433;SDS011;33184;48.774;8.918;2023-05-20T12:49:18;2.92;;;2.42;;
47433;SDS011;33184;48.774;8.918;2023-05-20T12:54:38;2.50;;;2.22;;
47433;SDS011;33184;48.774;8.918;2023-05-20T12:59:59;7.53;;;2.78;;
47433;SDS011;33184;48.774;8.918;2023-05-20T13:05:19;3.17;;;2.35;;
47433;SDS011;33184;48.774;8.918;2023-05-20T13:10:40;5.22;;;2.45;;
47433;SDS011;33184;48.774;8.918;2023-05-20T13:16:01;2.92;;;2.33;;
47433;SDS011;33184;48.774;8.918;2023-05-20T13:21:22;5.00;;;2.90;;
47433;SDS011;33184;48.774;8.918;2023-05-20T13:26:42;3.22;;;3.00;;
47433;SDS011;33184;48.774;8.918;2023-05-20T13:32:04;3.30;;;2.40;;
47433;SDS011;33184;48.774;8.918;2023-05-20T13:37:25;2.40;;;2.20;;
47433;SDS011;33184;48.774;8.918;2023-05-20T13:42:45;2.85;;;2.47;;
47433;SDS011;33184;48.774;8.918;2023-05-20T13:48:06;4.20;;;2.78;;
47433;SDS011;33184;48.774;8.918;2023-05-20T13:53:27;5.35;;;2.97;;
47433;SDS011;33184;48.774;8.918;2023-05-20T13:58:47;4.13;;;1.92;;
47433;SDS011;33184;48.774;8.918;2023-05-20T14:04:08;4.90;;;2.22;;
47433;SDS011;33184;48.774;8.918;2023-05-20T14:09:29;2.83;;;2.55;;
47433;SDS011;33184;48.774;8.918;2023-05-20T14:14:49;2.97;;;2.60;;
47433;SDS011;33184;48.774;8.918;2023-05-20T14:20:10;3.47;;;2.15;;
47433;SDS011;33184;48.774;8.918;2023-05-20T14:25:31;2.80;;;2.58;;
47433;SDS011;33184;48.774;8.918;2023-05-20T14:30:51;2.83;;;1.92;;
47433;SDS011;33184;48.774;8.918;2023-05-20T14:36:13;2.50;;;2.17;;
47433;SDS011;33184;48.774;8.918;2023-05-20T14:41:34;4.22;;;2.72;;
47433;SDS011;33184;48.774;8.918;2023-05-20T14:46:54;2.85;;;1.90;;
47433;SDS011;33184;48.774;8.918;2023-05-20T14:52:15;2.17;;;1.83;;
47433;SDS011;33184;48.774;8.918;2023-05-20T14:57:36;2.83;;;1.95;;
47433;SDS011;33184;48.774;8.918;2023-05-20T15:02:57;3.50;;;2.55;;
47433;SDS011;33184;48.774;8.918;2023-05-20T15:08:17;4.10;;;1.85;;
47433;SDS011;33184;48.774;8.918;2023-05-20T15:13:38;4.65;;;2.15;;
47433;SDS011;33184;48.774;8.918;2023-05-20T15:18:59;3.97;;;1.63;;
47433;SDS011;33184;48.774;8.918;2023-05-20T15:24:20;3.65;;;1.90;;
47433;SDS011;33184;48.774;8.918;2023-05-20T15:29:41;2.30;;;2.00;;
47433;SDS011;33184;48.774;8.918;2023-05-20T15:35:02;3.70;;;1.80;;
47433;SDS011;33184;48.774;8.918;2023-05-20T15:40:23;1.73;;;1.45;;
47433;SDS011;33184;48.774;8.918;2023-05-20T15:45:44;5.18;;;2.08;;
47433;SDS011;33184;48.774;8.918;2023-05-20T15:51:05;2.38;;;2.03;;
47433;SDS011;33184;48.774;8.918;2023-05-20T15:56:27;3.53;;;1.98;;
47433;SDS011;33184;48.774;8.918;2023-05-20T16:01:48;2.22;;;2.03;;
47433;SDS011;33184;48.774;8.918;2023-05-20T16:07:08;1.90;;;1.70;;
47433;SDS011;33184;48.774;8.918;2023-05-20T16:12:29;5.15;;;2.38;;
47433;SDS011;33184;48.774;8.918;2023-05-20T16:17:49;3.75;;;2.28;;
47433;SDS011;33184;48.774;8.918;2023-05-20T16:23:10;2.55;;;2.35;;
47433;SDS011;33184;48.774;8.918;2023-05-20T16:28:30;3.95;;;1.83;;
47433;SDS011;33184;48.774;8.918;2023-05-20T16:33:51;3.60;;;1.95;;
47433;SDS011;33184;48.774;8.918;2023-05-20T16:39:12;4.35;;;1.83;;
47433;SDS011;33184;48.774;8.918;2023-05-20T16:44:33;3.55;;;1.95;;
47433;SDS011;33184;48.774;8.918;2023-05-20T16:49:57;4.30;;;3.90;;
47433;SDS011;33184;48.774;8.918;2023-05-20T16:55:18;3.03;;;2.83;;
47433;SDS011;33184;48.774;8.918;2023-05-20T17:00:39;3.90;;;3.40;;
47433;SDS011;33184;48.774;8.918;2023-05-20T17:06:00;3.33;;;3.03;;
47433;SDS011;33184;48.774;8.918;2023-05-20T17:11:21;4.57;;;3.40;;
47433;SDS011;33184;48.774;8.918;2023-05-20T17:16:42;7.32;;;4.30;;
47433;SDS011;33184;48.774;8.918;2023-05-20T17:22:02;5.43;;;3.70;;
47433;SDS011;33184;48.774;8.918;2023-05-20T17:27:23;4.65;;;3.78;;
47433;SDS011;33184;48.774;8.918;2023-05-20T17:32:43;5.97;;;3.90;;
47433;SDS011;33184;48.774;8.918;2023-05-20T17:38:04;4.55;;;3.47;;
47433;SDS011;33184;48.774;8.918;2023-05-20T17:43:25;4.32;;;3.92;;
47433;SDS011;33184;48.774;8.918;2023-05-20T17:48:45;6.47;;;4.43;;
47433;SDS011;33184;48.774;8.918;2023-05-20T17:54:06;6.47;;;4.10;;
47433;SDS011;33184;48.774;8.918;2023-05-20T17:59:26;6.38;;;5.10;;
47433;SDS011;33184;48.774;8.918;2023-05-20T18:04:47;13.68;;;10.98;;
47433;SDS011;33184;48.774;8.918;2023-05-20T18:10:07;5.07;;;4.63;;
47433;SDS011;33184;48.774;8.918;2023-05-20T18:15:28;6.30;;;5.47;;
47433;SDS011;33184;48.774;8.918;2023-05-20T18:20:49;6.28;;;5.03;;
47433;SDS011;33184;48.774;8.918;2023-05-20T18:26:10;5.50;;;4.95;;
47433;SDS011;33184;48.774;8.918;2023-05-20T18:31:30;6.93;;;5.13;;
47433;SDS011;33184;48.774;8.918;2023-05-20T18:36:51;5.68;;;4.78;;
47433;SDS011;33184;48.774;8.918;2023-05-20T18:42:11;8.93;;;5.82;;
47433;SDS011;33184;48.774;8.918;2023-05-20T18:47:32;9.38;;;5.20;;
47433;SDS011;33184;48.774;8.918;2023-05-20T18:52:52;5.97;;;5.43;;
47433;SDS011;33184;48.774;8.918;2023-05-20T18:58:13;7.28;;;6.35;;
47433;SDS011;33184;48.774;8.918;2023-05-20T19:03:33;6.75;;;5.35;;
47433;SDS011;33184;48.774;8.918;2023-05-20T19:08:54;9.05;;;6.18;;
47433;SDS011;33184;48.774;8.918;2023-05-20T19:14:15;6.78;;;6.18;;
47433;SDS011;33184;48.774;8.918;2023-05-20T19:19:35;6.53;;;5.93;;
47433;SDS011;33184;48.774;8.918;2023-05-20T19:24:56;7.03;;;6.30;;
47433;SDS011;33184;48.774;8.918;2023-05-20T19:30:16;11.20;;;6.95;;
47433;SDS011;33184;48.774;8.918;2023-05-20T19:35:37;10.38;;;7.38;;
47433;SDS011;33184;48.774;8.918;2023-05-20T19:40:57;6.40;;;5.32;;
47433;SDS011;33184;48.774;8.918;2023-05-20T19:46:18;9.23;;;6.07;;
47433;SDS011;33184;48.774;8.918;2023-05-20T19:51:38;8.05;;;6.80;;
47433;SDS011;33184;48.774;8.918;2023-05-20T19:56:59;10.25;;;6.32;;
47433;SDS011;33184;48.774;8.918;2023-05-20T20:02:19;8.98;;;7.20;;
47433;SDS011;33184;48.774;8.918;2023-05-20T20:07:40;9.70;;;7.07;;
47433;SDS011;33184;48.774;8.918;2023-05-20T20:13:00;10.27;;;6.50;;
47433;SDS011;33184;48.774;8.918;2023-05-20T20:18:21;7.05;;;6.45;;
47433;SDS011;33184;48.774;8.918;2023-05-20T20:23:41;8.77;;;6.93;;
47433;SDS011;33184;48.774;8.918;2023-05-20T20:29:02;7.13;;;6.40;;
47433;SDS011;33184;48.774;8.918;2023-05-20T20:34:22;7.57;;;6.25;;
47433;SDS011;33184;48.774;8.918;2023-05-20T20:39:43;8.00;;;7.20;;
47433;SDS011;33184;48.774;8.918;2023-05-20T20:45:07;7.75;;;7.05;;
47433;SDS011;33184;48.774;8.918;2023-05-20T20:50:28;7.60;;;6.80;;
47433;SDS011;33184;48.774;8.918;2023-05-20T20:55:48;7.53;;;6.72;;
47433;SDS011;33184;48.774;8.918;2023-05-20T21:01:12;9.37;;;7.73;;
47433;SDS011;33184;48.774;8.918;2023-05-20T21:11:56;10.23;;;6.60;;
47433;SDS011;33184;48.774;8.918;2023-05-20T21:17:19;8.55;;;7.28;;
47433;SDS011;33184;48.774;8.918;2023-05-20T21:22:39;8.40;;;7.60;;
47433;SDS011;33184;48.774;8.918;2023-05-20T21:28:00;8.32;;;6.78;;
47433;SDS011;33184;48.774;8.918;2023-05-20T21:33:21;9.15;;;8.23;;
47433;SDS011;33184;48.774;8.918;2023-05-20T21:38:41;8.32;;;7.53;;
47433;SDS011;33184;48.774;8.918;2023-05-20T21:44:02;8.50;;;7.43;;
47433;SDS011;33184;48.774;8.918;2023-05-20T21:49:23;9.70;;;8.65;;
47433;SDS011;33184;48.774;8.918;2023-05-20T21:54:43;11.38;;;8.95;;
47433;SDS011;33184;48.774;8.918;2023-05-20T22:00:05;11.00;;;9.68;;
47433;SDS011;33184;48.774;8.918;2023-05-20T22:05:29;10.70;;;8.95;;
47433;SDS011;33184;48.774;8.918;2023-05-20T22:10:49;12.95;;;9.68;;
47433;SDS011;33184;48.774;8.918;2023-05-20T22:16:10;11.18;;;10.02;;
47433;SDS011;33184;48.774;8.918;2023-05-20T22:21:30;13.88;;;10.85;;
47433;SDS011;33184;48.774;8.918;2023-05-20T22:26:51;11.05;;;10.00;;
47433;SDS011;33184;48.774;8.918;2023-05-20T22:32:11;10.48;;;9.32;;
47433;SDS011;33184;48.774;8.918;2023-05-20T22:37:32;12.45;;;10.48;;
47433;SDS011;33184;48.774;8.918;2023-05-20T22:42:53;11.57;;;10.48;;
47433;SDS011;33184;48.774;8.918;2023-05-20T22:48:13;12.30;;;10.70;;
47433;SDS011;33184;48.774;8.918;2023-05-20T22:53:34;13.40;;;11.25;;
47433;SDS011;33184;48.774;8.918;2023-05-20T22:58:54;14.00;;;11.10;;
47433;SDS011;33184;48.774;8.918;2023-05-20T23:04:15;44.70;;;17.63;;
47433;SDS011;33184;48.774;8.918;2023-05-20T23:09:35;12.32;;;10.68;;
47433;SDS011;33184;48.774;8.918;2023-05-20T23:14:56;14.40;;;12.98;;
47433;SDS011;33184;48.774;8.918;2023-05-20T23:20:16;13.95;;;12.55;;
47433;SDS011;33184;48.774;8.918;2023-05-20T23:25:38;13.70;;;12.27;;
47433;SDS011;33184;48.774;8.918;2023-05-20T23:30:59;13.05;;;11.70;;
47433;SDS011;33184;48.774;8.918;2023-05-20T23:36:20;12.70;;;11.40;;
47433;SDS011;33184;48.774;8.918;2023-05-20T23:41:40;14.38;;;12.88;;
47433;SDS011;33184;48.774;8.918;2023-05-20T23:47:01;17.42;;;13.85;;
47433;SDS011;33184;48.774;8.918;2023-05-20T23:52:23;15.13;;;12.50;;
47433;SDS011;33184;48.774;8.918;2023-05-20T23:57:43;13.88;;;12.48;;
